createdAt,value
2023-03-31T00:00:29.994Z,88.53
2023-03-31T00:01:29.983Z,88.53
2023-03-31T00:02:30.054Z,88.43
2023-03-31T00:03:30.415Z,88.43
2023-03-31T00:04:29.959Z,88.57
2023-03-31T00:05:29.957Z,89.09
2023-03-31T00:06:29.941Z,89.04
2023-03-31T00:07:29.925Z,88.84
2023-03-31T00:08:31.010Z,88.94
2023-03-31T00:09:29.931Z,89.04
2023-03-31T00:10:29.918Z,88.98
2023-03-31T00:11:29.888Z,88.94
2023-03-31T00:12:29.886Z,88.74
2023-03-31T00:13:30.094Z,88.74
2023-03-31T00:14:29.867Z,88.74
2023-03-31T00:15:29.854Z,88.84
2023-03-31T00:16:29.926Z,88.84
2023-03-31T00:17:29.841Z,88.94
2023-03-31T00:18:30.557Z,88.94
2023-03-31T00:19:29.812Z,88.94
2023-03-31T00:20:29.825Z,88.84
2023-03-31T00:21:29.993Z,88.84
2023-03-31T00:22:29.796Z,88.94
2023-03-31T00:23:30.319Z,88.84
2023-03-31T00:24:29.773Z,88.84
2023-03-31T00:25:29.759Z,89.04
2023-03-31T00:26:29.757Z,89.04
2023-03-31T00:27:29.735Z,88.94
2023-03-31T00:28:30.616Z,88.98
2023-03-31T00:29:29.724Z,89.04
2023-03-31T00:30:29.714Z,89.19
2023-03-31T00:31:29.746Z,89.04
2023-03-31T00:32:29.707Z,89.04
2023-03-31T00:33:30.051Z,89.15
2023-03-31T00:34:29.681Z,88.94
2023-03-31T00:35:29.664Z,89.04
2023-03-31T00:36:29.675Z,89.15
2023-03-31T00:37:29.643Z,88.94
2023-03-31T00:38:30.618Z,88.84
2023-03-31T00:39:29.623Z,88.74
2023-03-31T00:40:29.623Z,88.74
2023-03-31T00:41:29.633Z,88.94
2023-03-31T00:42:29.606Z,88.74
2023-03-31T00:43:29.931Z,88.53
2023-03-31T00:44:29.594Z,88.53
2023-03-31T00:45:29.586Z,88.53
2023-03-31T00:46:29.615Z,88.53
2023-03-31T00:47:29.609Z,88.74
2023-03-31T00:48:29.937Z,88.64
2023-03-31T00:49:29.540Z,88.74
2023-03-31T00:50:29.540Z,88.74
2023-03-31T00:51:29.544Z,88.84
2023-03-31T00:52:29.512Z,88.64
2023-03-31T00:53:29.930Z,88.74
2023-03-31T00:54:29.502Z,88.64
2023-03-31T00:55:29.479Z,88.64
2023-03-31T00:56:29.475Z,88.64
2023-03-31T00:57:29.495Z,88.64
2023-03-31T00:58:30.177Z,88.43
2023-03-31T00:59:29.449Z,88.43
2023-03-31T01:00:29.461Z,88.43
2023-03-31T01:01:29.476Z,88.39
2023-03-31T01:02:29.466Z,88.43
2023-03-31T01:03:30.210Z,88.43
2023-03-31T01:04:29.403Z,88.29
2023-03-31T01:05:29.400Z,88.18
2023-03-31T01:06:29.390Z,88.08
2023-03-31T01:07:29.384Z,88.08
2023-03-31T01:08:29.753Z,87.98
2023-03-31T01:09:29.358Z,87.88
2023-03-31T01:10:29.353Z,87.88
2023-03-31T01:11:29.337Z,87.77
2023-03-31T01:12:29.351Z,87.88
2023-03-31T01:13:29.332Z,87.88
2023-03-31T01:14:29.317Z,87.98
2023-03-31T01:15:29.298Z,87.88
2023-03-31T01:16:29.382Z,87.77
2023-03-31T01:17:29.498Z,87.77
2023-03-31T01:18:29.675Z,87.88
2023-03-31T01:19:29.261Z,87.88
2023-03-31T01:20:29.261Z,87.88
2023-03-31T01:21:29.239Z,87.77
2023-03-31T01:22:29.253Z,87.88
2023-03-31T01:23:29.955Z,87.98
2023-03-31T01:24:29.226Z,87.98
2023-03-31T01:25:29.199Z,88.08
2023-03-31T01:26:29.203Z,88.23
2023-03-31T01:27:29.194Z,88.33
2023-03-31T01:28:29.980Z,88.43
2023-03-31T01:29:29.212Z,88.43
2023-03-31T01:30:29.162Z,88.53
2023-03-31T01:31:29.219Z,88.43
2023-03-31T01:32:29.205Z,88.43
2023-03-31T01:33:29.976Z,88.64
2023-03-31T01:34:29.164Z,88.74
2023-03-31T01:35:29.117Z,89.04
2023-03-31T01:36:29.151Z,89.19
2023-03-31T01:37:29.092Z,89.19
2023-03-31T01:38:29.577Z,89.39
2023-03-31T01:39:29.082Z,89.29
2023-03-31T01:40:29.073Z,89.29
2023-03-31T01:41:29.066Z,89.50
2023-03-31T01:42:29.057Z,89.60
2023-03-31T01:43:29.397Z,89.60
2023-03-31T01:44:29.048Z,89.60
2023-03-31T01:45:29.022Z,89.70
2023-03-31T01:46:29.083Z,89.60
2023-03-31T01:47:29.045Z,89.50
2023-03-31T01:48:29.317Z,89.60
2023-03-31T01:49:28.983Z,89.60
2023-03-31T01:50:28.989Z,89.50
2023-03-31T01:51:28.968Z,89.39
2023-03-31T01:52:29.023Z,89.09
2023-03-31T01:53:29.326Z,89.29
2023-03-31T01:54:28.945Z,89.39
2023-03-31T01:55:28.932Z,89.39
2023-03-31T01:56:28.935Z,89.29
2023-03-31T01:57:29.013Z,89.29
2023-03-31T01:58:29.259Z,89.39
2023-03-31T01:59:28.895Z,89.29
2023-03-31T02:00:28.888Z,89.04
2023-03-31T02:01:28.908Z,88.98
2023-03-31T02:02:28.963Z,88.88
2023-03-31T02:03:29.755Z,88.84
2023-03-31T02:04:28.850Z,88.84
2023-03-31T02:05:28.856Z,88.74
2023-03-31T02:06:28.834Z,88.74
2023-03-31T02:07:28.818Z,88.78
2023-03-31T02:08:29.281Z,88.64
2023-03-31T02:09:28.801Z,88.64
2023-03-31T02:10:28.818Z,88.64
2023-03-31T02:11:28.788Z,88.53
2023-03-31T02:12:28.771Z,88.64
2023-03-31T02:13:29.656Z,88.53
2023-03-31T02:14:28.762Z,88.43
2023-03-31T02:15:28.757Z,88.33
2023-03-31T02:16:28.788Z,88.33
2023-03-31T02:17:28.738Z,88.33
2023-03-31T02:18:29.015Z,88.33
2023-03-31T02:19:28.701Z,88.12
2023-03-31T02:20:28.698Z,88.12
2023-03-31T02:21:28.685Z,88.02
2023-03-31T02:22:28.681Z,87.92
2023-03-31T02:23:29.347Z,87.82
2023-03-31T02:24:28.662Z,87.82
2023-03-31T02:25:28.644Z,87.82
2023-03-31T02:26:28.639Z,87.92
2023-03-31T02:27:28.621Z,87.82
2023-03-31T02:28:29.460Z,87.71
2023-03-31T02:29:28.617Z,87.82
2023-03-31T02:30:28.605Z,87.71
2023-03-31T02:31:28.600Z,87.82
2023-03-31T02:32:28.625Z,87.71
2023-03-31T02:33:29.291Z,87.82
2023-03-31T02:34:28.566Z,87.71
2023-03-31T02:35:28.590Z,87.71
2023-03-31T02:36:28.548Z,87.71
2023-03-31T02:37:28.531Z,87.71
2023-03-31T02:38:28.912Z,87.71
2023-03-31T02:39:28.520Z,87.61
2023-03-31T02:40:28.511Z,87.47
2023-03-31T02:41:28.504Z,87.47
2023-03-31T02:42:28.489Z,87.77
2023-03-31T02:43:29.374Z,87.67
2023-03-31T02:44:28.472Z,87.61
2023-03-31T02:45:28.493Z,87.51
2023-03-31T02:46:28.510Z,87.67
2023-03-31T02:47:28.471Z,87.67
2023-03-31T02:48:28.793Z,87.57
2023-03-31T02:49:28.427Z,87.57
2023-03-31T02:50:28.421Z,87.57
2023-03-31T02:51:28.446Z,87.57
2023-03-31T02:52:28.405Z,87.57
2023-03-31T02:53:29.160Z,87.47
2023-03-31T02:54:28.376Z,87.47
2023-03-31T02:55:28.366Z,87.57
2023-03-31T02:56:28.355Z,87.57
2023-03-31T02:57:28.459Z,87.57
2023-03-31T02:58:28.336Z,87.67
2023-03-31T02:59:28.680Z,87.67
2023-03-31T03:00:28.322Z,87.67
2023-03-31T03:01:28.388Z,87.77
2023-03-31T03:02:28.393Z,87.88
2023-03-31T03:03:28.342Z,87.98
2023-03-31T03:04:28.567Z,88.08
2023-03-31T03:05:28.274Z,87.98
2023-03-31T03:06:28.262Z,87.98
2023-03-31T03:07:28.256Z,88.08
2023-03-31T03:08:28.241Z,88.08
2023-03-31T03:09:28.569Z,88.23
2023-03-31T03:10:28.223Z,88.29
2023-03-31T03:11:28.236Z,88.70
2023-03-31T03:12:28.205Z,88.84
2023-03-31T03:13:28.208Z,88.84
2023-03-31T03:14:28.504Z,89.21
2023-03-31T03:15:28.180Z,89.72
2023-03-31T03:16:28.196Z,90.07
2023-03-31T03:17:28.229Z,90.28
2023-03-31T03:18:28.152Z,90.69
2023-03-31T03:19:28.492Z,90.89
2023-03-31T03:20:28.138Z,91.30
2023-03-31T03:21:28.139Z,91.61
2023-03-31T03:22:28.119Z,91.50
2023-03-31T03:23:28.106Z,91.71
2023-03-31T03:24:28.289Z,92.02
2023-03-31T03:25:28.091Z,92.12
2023-03-31T03:26:28.094Z,92.32
2023-03-31T03:27:28.075Z,92.43
2023-03-31T03:28:28.057Z,92.63
2023-03-31T03:29:28.083Z,92.88
2023-03-31T03:30:28.034Z,92.94
2023-03-31T03:31:28.160Z,93.15
2023-03-31T03:32:28.091Z,93.29
2023-03-31T03:33:28.015Z,93.39
2023-03-31T03:34:28.310Z,93.49
2023-03-31T03:35:27.999Z,93.90
2023-03-31T03:36:28.037Z,94.21
2023-03-31T03:37:27.981Z,94.21
2023-03-31T03:38:27.969Z,94.42
2023-03-31T03:39:28.345Z,94.62
2023-03-31T03:40:27.944Z,94.73
2023-03-31T03:41:27.946Z,94.93
2023-03-31T03:42:27.931Z,94.83
2023-03-31T03:43:27.929Z,95.03
2023-03-31T03:44:28.673Z,95.03
2023-03-31T03:45:27.916Z,95.14
2023-03-31T03:46:27.912Z,95.14
2023-03-31T03:47:27.917Z,95.24
2023-03-31T03:48:27.882Z,95.44
2023-03-31T03:49:28.200Z,95.44
2023-03-31T03:50:27.851Z,95.54
2023-03-31T03:51:27.844Z,95.65
2023-03-31T03:52:27.833Z,95.75
2023-03-31T03:53:27.829Z,95.86
2023-03-31T03:54:28.084Z,95.95
2023-03-31T03:55:27.803Z,96.06
2023-03-31T03:56:27.789Z,96.31
2023-03-31T03:57:27.816Z,96.31
2023-03-31T03:58:27.786Z,96.41
2023-03-31T03:59:28.128Z,96.41
2023-03-31T04:00:27.749Z,96.47
2023-03-31T04:01:27.746Z,96.72
2023-03-31T04:02:28.155Z,96.62
2023-03-31T04:03:27.772Z,96.82
2023-03-31T04:04:28.050Z,97.03
2023-03-31T04:05:27.774Z,97.03
2023-03-31T04:06:27.703Z,97.03
2023-03-31T04:07:27.689Z,97.23
2023-03-31T04:08:27.674Z,97.23
2023-03-31T04:09:28.076Z,97.33
2023-03-31T04:10:27.653Z,97.44
2023-03-31T04:11:27.649Z,97.44
2023-03-31T04:12:27.640Z,97.54
2023-03-31T04:13:27.625Z,97.54
2023-03-31T04:14:28.421Z,97.60
2023-03-31T04:15:27.611Z,97.60
2023-03-31T04:16:27.631Z,97.39
2023-03-31T04:17:27.648Z,97.39
2023-03-31T04:18:27.582Z,97.39
2023-03-31T04:19:27.673Z,97.29
2023-03-31T04:20:27.558Z,97.19
2023-03-31T04:21:27.553Z,97.29
2023-03-31T04:22:27.537Z,97.29
2023-03-31T04:23:27.573Z,97.19
2023-03-31T04:24:27.535Z,97.08
2023-03-31T04:25:27.526Z,96.88
2023-03-31T04:26:27.498Z,96.98
2023-03-31T04:27:27.513Z,96.98
2023-03-31T04:28:27.481Z,96.98
2023-03-31T04:29:27.818Z,97.08
2023-03-31T04:30:27.413Z,96.88
2023-03-31T04:31:27.499Z,96.88
2023-03-31T04:32:27.459Z,96.78
2023-03-31T04:33:27.397Z,96.67
2023-03-31T04:34:27.395Z,96.78
2023-03-31T04:35:27.438Z,96.67
2023-03-31T04:36:27.403Z,96.67
2023-03-31T04:37:27.358Z,96.67
2023-03-31T04:38:27.524Z,96.47
2023-03-31T04:39:27.376Z,96.47
2023-03-31T04:40:27.319Z,96.47
2023-03-31T04:41:27.305Z,96.26
2023-03-31T04:42:27.292Z,96.16
2023-03-31T04:43:27.289Z,96.06
2023-03-31T04:44:27.391Z,96.06
2023-03-31T04:45:27.346Z,95.95
2023-03-31T04:46:27.299Z,95.86
2023-03-31T04:47:27.313Z,96.06
2023-03-31T04:48:27.238Z,95.95
2023-03-31T04:49:27.252Z,96.06
2023-03-31T04:50:27.222Z,96.06
2023-03-31T04:51:27.209Z,95.95
2023-03-31T04:52:27.194Z,95.86
2023-03-31T04:53:27.202Z,95.86
2023-03-31T04:54:27.201Z,95.75
2023-03-31T04:55:27.184Z,95.86
2023-03-31T04:56:27.170Z,95.61
2023-03-31T04:57:27.183Z,95.54
2023-03-31T04:58:27.142Z,95.50
2023-03-31T04:59:27.311Z,95.50
2023-03-31T05:00:27.129Z,95.61
2023-03-31T05:01:27.232Z,95.40
2023-03-31T05:02:27.168Z,95.40
2023-03-31T05:03:27.330Z,95.40
2023-03-31T05:04:27.108Z,95.50
2023-03-31T05:05:27.084Z,95.61
2023-03-31T05:06:27.067Z,95.50
2023-03-31T05:07:27.061Z,95.61
2023-03-31T05:08:27.067Z,95.50
2023-03-31T05:09:27.376Z,95.40
2023-03-31T05:10:27.036Z,95.50
2023-03-31T05:11:27.032Z,95.29
2023-03-31T05:12:27.014Z,95.40
2023-03-31T05:13:27.008Z,95.40
2023-03-31T05:14:27.319Z,95.29
2023-03-31T05:15:26.987Z,95.20
2023-03-31T05:16:26.990Z,95.20
2023-03-31T05:17:26.996Z,95.09
2023-03-31T05:18:26.969Z,95.09
2023-03-31T05:19:26.975Z,95.09
2023-03-31T05:20:26.936Z,94.68
2023-03-31T05:21:26.932Z,94.68
2023-03-31T05:22:26.919Z,94.48
2023-03-31T05:23:26.915Z,94.27
2023-03-31T05:24:27.577Z,94.17
2023-03-31T05:25:26.892Z,94.17
2023-03-31T05:26:26.880Z,94.07
2023-03-31T05:27:26.889Z,93.96
2023-03-31T05:28:26.864Z,93.96
2023-03-31T05:29:27.317Z,93.96
2023-03-31T05:30:26.850Z,93.96
2023-03-31T05:31:26.860Z,93.86
2023-03-31T05:32:26.844Z,93.86
2023-03-31T05:33:26.821Z,93.86
2023-03-31T05:34:26.821Z,93.66
2023-03-31T05:35:26.813Z,93.66
2023-03-31T05:36:26.815Z,93.35
2023-03-31T05:37:26.782Z,93.30
2023-03-31T05:38:26.771Z,93.41
2023-03-31T05:39:27.074Z,93.20
2023-03-31T05:40:26.760Z,93.00
2023-03-31T05:41:26.757Z,92.90
2023-03-31T05:42:26.746Z,92.90
2023-03-31T05:43:26.730Z,93.10
2023-03-31T05:44:27.029Z,93.10
2023-03-31T05:45:26.714Z,93.10
2023-03-31T05:46:26.746Z,93.00
2023-03-31T05:47:26.747Z,92.90
2023-03-31T05:48:26.672Z,93.00
2023-03-31T05:49:27.005Z,93.00
2023-03-31T05:50:26.659Z,93.20
2023-03-31T05:51:26.666Z,93.30
2023-03-31T05:52:26.643Z,93.41
2023-03-31T05:53:26.647Z,93.20
2023-03-31T05:54:26.960Z,93.71
2023-03-31T05:55:26.616Z,93.51
2023-03-31T05:56:26.600Z,93.92
2023-03-31T05:57:26.688Z,93.71
2023-03-31T05:58:26.613Z,93.71
2023-03-31T05:59:26.582Z,94.02
2023-03-31T06:00:26.592Z,94.33
2023-03-31T06:01:26.636Z,94.02
2023-03-31T06:02:26.744Z,94.12
2023-03-31T06:03:26.608Z,94.23
2023-03-31T06:04:26.580Z,94.33
2023-03-31T06:05:26.957Z,94.68
2023-03-31T06:06:26.516Z,94.89
2023-03-31T06:07:26.514Z,94.48
2023-03-31T06:08:26.492Z,94.27
2023-03-31T06:09:26.508Z,94.48
2023-03-31T06:10:26.490Z,94.48
2023-03-31T06:11:26.470Z,94.58
2023-03-31T06:12:26.456Z,94.48
2023-03-31T06:13:26.457Z,94.48
2023-03-31T06:14:26.452Z,94.89
2023-03-31T06:15:26.449Z,94.17
2023-03-31T06:16:26.556Z,94.27
2023-03-31T06:17:26.425Z,94.48
2023-03-31T06:18:26.409Z,94.68
2023-03-31T06:19:26.400Z,94.27
2023-03-31T06:20:28.286Z,94.27
2023-03-31T06:21:26.384Z,94.48
2023-03-31T06:22:26.370Z,94.48
2023-03-31T06:23:26.365Z,94.27
2023-03-31T06:24:26.355Z,94.48
2023-03-31T06:25:27.366Z,94.48
2023-03-31T06:26:26.354Z,94.48
2023-03-31T06:27:26.337Z,94.48
2023-03-31T06:28:26.318Z,94.48
2023-03-31T06:29:26.313Z,94.37
2023-03-31T06:30:26.323Z,94.37
2023-03-31T06:31:26.313Z,94.27
2023-03-31T06:32:26.311Z,94.68
2023-03-31T06:33:26.272Z,94.48
2023-03-31T06:34:26.267Z,94.68
2023-03-31T06:35:26.554Z,94.58
2023-03-31T06:36:26.256Z,94.17
2023-03-31T06:37:26.248Z,94.37
2023-03-31T06:38:26.226Z,94.37
2023-03-31T06:39:28.192Z,94.33
2023-03-31T06:40:26.660Z,94.48
2023-03-31T06:41:26.208Z,94.48
2023-03-31T06:42:26.235Z,94.12
2023-03-31T06:43:26.212Z,94.02
2023-03-31T06:44:26.178Z,94.17
2023-03-31T06:45:26.507Z,93.82
2023-03-31T06:46:26.202Z,93.92
2023-03-31T06:47:26.210Z,94.23
2023-03-31T06:48:26.143Z,94.12
2023-03-31T06:49:26.134Z,93.82
2023-03-31T06:50:26.480Z,93.71
2023-03-31T06:51:26.142Z,94.02
2023-03-31T06:52:26.110Z,93.51
2023-03-31T06:53:26.105Z,93.62
2023-03-31T06:54:26.095Z,93.51
2023-03-31T06:55:26.369Z,93.82
2023-03-31T06:56:26.068Z,93.51
2023-03-31T06:57:26.087Z,93.62
2023-03-31T06:58:27.725Z,93.51
2023-03-31T06:59:26.368Z,93.30
2023-03-31T07:00:26.429Z,93.10
2023-03-31T07:01:26.107Z,93.30
2023-03-31T07:02:26.051Z,93.30
2023-03-31T07:03:26.115Z,92.90
2023-03-31T07:04:26.002Z,92.79
2023-03-31T07:05:26.510Z,92.90
2023-03-31T07:06:26.000Z,93.41
2023-03-31T07:07:25.988Z,93.10
2023-03-31T07:08:25.964Z,93.30
2023-03-31T07:09:25.978Z,93.62
2023-03-31T07:10:26.385Z,94.33
2023-03-31T07:11:25.973Z,94.12
2023-03-31T07:12:25.942Z,94.54
2023-03-31T07:13:26.168Z,95.15
2023-03-31T07:14:25.918Z,95.29
2023-03-31T07:15:25.934Z,95.70
2023-03-31T07:16:25.962Z,95.91
2023-03-31T07:17:25.936Z,96.12
2023-03-31T07:18:25.951Z,96.63
2023-03-31T07:19:25.868Z,96.98
2023-03-31T07:20:26.380Z,97.49
2023-03-31T07:21:25.853Z,97.39
2023-03-31T07:22:25.874Z,97.60
2023-03-31T07:23:25.856Z,97.60
2023-03-31T07:24:25.830Z,97.91
2023-03-31T07:25:26.329Z,98.21
2023-03-31T07:26:25.822Z,98.32
2023-03-31T07:27:26.450Z,98.62
2023-03-31T07:28:25.789Z,98.72
2023-03-31T07:29:25.774Z,98.93
2023-03-31T07:30:26.082Z,98.83
2023-03-31T07:31:25.775Z,98.93
2023-03-31T07:32:27.707Z,98.93
2023-03-31T07:33:25.743Z,98.93
2023-03-31T07:34:25.743Z,98.93
2023-03-31T07:35:26.219Z,99.18
2023-03-31T07:36:25.769Z,99.18
2023-03-31T07:37:25.708Z,99.38
2023-03-31T07:38:25.780Z,99.49
2023-03-31T07:39:25.704Z,99.49
2023-03-31T07:40:26.135Z,99.18
2023-03-31T07:41:25.682Z,99.59
2023-03-31T07:42:25.681Z,99.49
2023-03-31T07:43:25.664Z,99.49
2023-03-31T07:44:25.656Z,99.69
2023-03-31T07:45:26.012Z,99.59
2023-03-31T07:46:25.660Z,99.38
2023-03-31T07:47:25.653Z,99.59
2023-03-31T07:48:25.647Z,99.69
2023-03-31T07:49:25.611Z,99.49
2023-03-31T07:50:25.940Z,99.69
2023-03-31T07:51:25.579Z,99.69
2023-03-31T07:52:25.578Z,99.69
2023-03-31T07:53:25.562Z,99.90
2023-03-31T07:54:25.561Z,99.90
2023-03-31T07:55:25.886Z,99.99
2023-03-31T07:56:25.539Z,99.90
2023-03-31T07:57:25.547Z,99.79
2023-03-31T07:58:25.548Z,99.90
2023-03-31T07:59:25.522Z,99.99
2023-03-31T08:00:25.642Z,99.99
2023-03-31T08:01:25.536Z,99.90
2023-03-31T08:02:25.650Z,99.90
2023-03-31T08:03:25.477Z,99.99
2023-03-31T08:04:25.480Z,99.99
2023-03-31T08:05:25.722Z,99.99
2023-03-31T08:06:25.484Z,99.99
2023-03-31T08:07:25.475Z,99.99
2023-03-31T08:08:25.498Z,99.99
2023-03-31T08:09:25.439Z,99.99
2023-03-31T08:10:25.445Z,99.99
2023-03-31T08:11:25.406Z,99.99
2023-03-31T08:12:25.420Z,99.99
2023-03-31T08:13:25.419Z,99.99
2023-03-31T08:14:40.022Z,99.99
2023-03-31T08:15:25.408Z,99.99
2023-03-31T08:16:25.428Z,99.99
2023-03-31T08:17:25.469Z,99.99
2023-03-31T08:18:25.346Z,99.99
2023-03-31T08:19:25.330Z,99.99
2023-03-31T08:20:25.648Z,99.99
2023-03-31T08:21:25.317Z,99.99
2023-03-31T08:22:25.322Z,99.99
2023-03-31T08:23:25.307Z,99.99
2023-03-31T08:24:25.302Z,99.99
2023-03-31T08:25:25.286Z,99.99
2023-03-31T08:26:26.055Z,99.99
2023-03-31T08:27:25.265Z,99.99
2023-03-31T08:28:25.257Z,99.99
2023-03-31T08:29:25.251Z,99.99
2023-03-31T08:30:25.253Z,99.99
2023-03-31T08:31:27.185Z,99.99
2023-03-31T08:32:25.265Z,99.99
2023-03-31T08:33:25.217Z,99.99
2023-03-31T08:34:25.228Z,99.99
2023-03-31T08:35:25.213Z,99.99
2023-03-31T08:36:25.254Z,99.99
2023-03-31T08:37:25.188Z,99.99
2023-03-31T08:38:25.176Z,99.99
2023-03-31T08:39:25.160Z,99.99
2023-03-31T08:40:25.175Z,99.99
2023-03-31T08:41:26.108Z,99.99
2023-03-31T08:42:25.133Z,99.99
2023-03-31T08:43:25.894Z,99.99
2023-03-31T08:44:25.116Z,99.99
2023-03-31T08:45:25.117Z,99.99
2023-03-31T08:46:25.481Z,99.99
2023-03-31T08:47:25.139Z,99.99
2023-03-31T08:48:25.077Z,99.99
2023-03-31T08:49:25.063Z,99.99
2023-03-31T08:50:25.057Z,99.99
2023-03-31T08:51:25.372Z,99.79
2023-03-31T08:52:25.051Z,98.97
2023-03-31T08:53:25.046Z,98.87
2023-03-31T08:54:25.017Z,98.77
2023-03-31T08:55:25.007Z,98.87
2023-03-31T08:56:25.611Z,98.87
2023-03-31T08:57:25.066Z,98.87
2023-03-31T08:58:25.005Z,99.08
2023-03-31T08:59:24.985Z,98.57
2023-03-31T09:00:24.975Z,98.57
2023-03-31T09:01:25.391Z,98.46
2023-03-31T09:02:25.211Z,98.77
2023-03-31T09:03:24.994Z,98.67
2023-03-31T09:04:25.006Z,98.16
2023-03-31T09:05:24.924Z,98.05
2023-03-31T09:06:24.934Z,97.74
2023-03-31T09:07:24.898Z,97.85
2023-03-31T09:08:24.897Z,97.74
2023-03-31T09:09:26.704Z,97.95
2023-03-31T09:10:24.876Z,98.16
2023-03-31T09:11:25.778Z,98.36
2023-03-31T09:12:24.866Z,98.25
2023-03-31T09:13:24.842Z,98.25
2023-03-31T09:14:24.853Z,98.87
2023-03-31T09:15:24.831Z,99.08
2023-03-31T09:16:25.094Z,98.67
2023-03-31T09:17:24.849Z,98.92
2023-03-31T09:18:25.448Z,98.20
2023-03-31T09:19:24.802Z,98.71
2023-03-31T09:20:24.828Z,99.12
2023-03-31T09:21:24.962Z,99.12
2023-03-31T09:22:24.767Z,99.12
2023-03-31T09:23:24.750Z,99.02
2023-03-31T09:24:24.779Z,99.02
2023-03-31T09:25:24.749Z,99.22
2023-03-31T09:26:25.635Z,99.54
2023-03-31T09:27:24.712Z,99.95
2023-03-31T09:28:24.707Z,99.95
2023-03-31T09:29:24.696Z,99.84
2023-03-31T09:30:24.694Z,99.74
2023-03-31T09:31:25.053Z,99.74
2023-03-31T09:32:24.762Z,99.74
2023-03-31T09:33:24.724Z,99.54
2023-03-31T09:34:24.656Z,99.63
2023-03-31T09:35:24.682Z,99.74
2023-03-31T09:36:25.047Z,99.95
2023-03-31T09:37:24.636Z,99.99
2023-03-31T09:38:24.618Z,99.99
2023-03-31T09:39:24.631Z,99.49
2023-03-31T09:40:24.612Z,99.18
2023-03-31T09:41:25.397Z,98.87
2023-03-31T09:42:24.576Z,99.28
2023-03-31T09:43:24.599Z,99.28
2023-03-31T09:44:24.589Z,99.49
2023-03-31T09:45:24.554Z,99.49
2023-03-31T09:46:24.635Z,99.38
2023-03-31T09:47:24.569Z,99.69
2023-03-31T09:48:24.531Z,99.99
2023-03-31T09:49:24.531Z,99.95
2023-03-31T09:50:25.139Z,99.95
2023-03-31T09:51:24.993Z,99.75
2023-03-31T09:52:24.547Z,99.40
2023-03-31T09:53:24.512Z,98.68
2023-03-31T09:54:24.477Z,98.68
2023-03-31T09:55:38.268Z,98.37
2023-03-31T09:56:25.282Z,97.61
2023-03-31T09:57:24.611Z,97.81
2023-03-31T09:58:24.446Z,97.56
2023-03-31T09:59:24.439Z,98.49
2023-03-31T10:00:24.421Z,98.33
2023-03-31T10:01:24.701Z,97.31
2023-03-31T10:02:24.446Z,96.80
2023-03-31T10:03:24.390Z,96.86
2023-03-31T10:04:24.408Z,97.02
2023-03-31T10:05:24.388Z,95.89
2023-03-31T10:06:24.699Z,96.71
2023-03-31T10:07:24.365Z,96.15
2023-03-31T10:08:24.368Z,94.67
2023-03-31T10:09:24.338Z,94.06
2023-03-31T10:10:24.340Z,93.85
2023-03-31T10:11:24.375Z,93.65
2023-03-31T10:12:24.388Z,93.74
2023-03-31T10:13:24.311Z,94.11
2023-03-31T10:14:24.306Z,94.21
2023-03-31T10:15:24.298Z,94.17
2023-03-31T10:16:24.738Z,94.02
2023-03-31T10:17:24.326Z,94.38
2023-03-31T10:18:24.333Z,93.88
2023-03-31T10:19:24.256Z,94.04
2023-03-31T10:20:24.268Z,91.55
2023-03-31T10:21:24.364Z,90.42
2023-03-31T10:22:24.240Z,89.92
2023-03-31T10:23:24.232Z,88.39
2023-03-31T10:24:24.260Z,89.30
2023-03-31T10:25:24.187Z,90.99
2023-03-31T10:26:24.901Z,89.73
2023-03-31T10:27:24.172Z,89.01
2023-03-31T10:28:24.159Z,89.83
2023-03-31T10:29:24.156Z,89.32
2023-03-31T10:30:24.158Z,87.38
2023-03-31T10:31:24.157Z,87.49
2023-03-31T10:32:24.592Z,88.00
2023-03-31T10:33:24.139Z,86.21
2023-03-31T10:34:24.085Z,86.86
2023-03-31T10:35:24.085Z,86.65
2023-03-31T10:36:24.090Z,87.88
2023-03-31T10:37:24.411Z,87.92
2023-03-31T10:38:24.058Z,88.32
2023-03-31T10:39:24.045Z,88.73
2023-03-31T10:40:24.035Z,88.84
2023-03-31T10:41:24.059Z,89.04
2023-03-31T10:42:24.371Z,88.63
2023-03-31T10:43:23.992Z,90.06
2023-03-31T10:44:23.993Z,89.55
2023-03-31T10:45:36.548Z,90.36
2023-03-31T10:46:24.005Z,89.25
2023-03-31T10:47:24.371Z,89.92
2023-03-31T10:48:23.959Z,88.79
2023-03-31T10:49:23.954Z,90.32
2023-03-31T10:50:23.951Z,90.79
2023-03-31T10:51:23.908Z,89.97
2023-03-31T10:52:24.273Z,88.96
2023-03-31T10:53:23.875Z,88.55
2023-03-31T10:54:23.882Z,88.92
2023-03-31T10:55:23.859Z,87.69
2023-03-31T10:56:23.850Z,89.32
2023-03-31T10:57:23.889Z,88.00
2023-03-31T10:58:23.834Z,87.69
2023-03-31T10:59:23.823Z,87.14
2023-03-31T11:00:23.836Z,87.45
2023-03-31T11:01:23.810Z,87.51
2023-03-31T11:02:23.868Z,85.98
2023-03-31T11:03:23.863Z,85.58
2023-03-31T11:04:23.770Z,87.67
2023-03-31T11:05:23.812Z,86.96
2023-03-31T11:06:23.804Z,86.76
2023-03-31T11:07:24.063Z,85.84
2023-03-31T11:08:23.739Z,83.91
2023-03-31T11:09:23.718Z,86.55
2023-03-31T11:10:23.740Z,82.21
2023-03-31T11:11:23.712Z,83.34
2023-03-31T11:12:23.702Z,82.52
2023-03-31T11:13:23.670Z,84.05
2023-03-31T11:14:23.663Z,83.74
2023-03-31T11:15:23.656Z,84.05
2023-03-31T11:16:23.696Z,84.11
2023-03-31T11:17:23.822Z,83.50
2023-03-31T11:18:23.631Z,83.70
2023-03-31T11:19:23.617Z,79.02
2023-03-31T11:20:23.599Z,80.79
2023-03-31T11:21:23.582Z,80.79
2023-03-31T11:22:25.551Z,81.16
2023-03-31T11:23:23.567Z,81.26
2023-03-31T11:24:23.558Z,85.29
2023-03-31T11:25:23.574Z,81.93
2023-03-31T11:26:23.536Z,82.85
2023-03-31T11:27:23.839Z,80.51
2023-03-31T11:28:23.498Z,80.65
2023-03-31T11:29:23.589Z,80.24
2023-03-31T11:30:23.478Z,80.59
2023-03-31T11:31:23.481Z,82.52
2023-03-31T11:32:23.476Z,80.79
2023-03-31T11:33:23.478Z,82.18
2023-03-31T11:34:23.796Z,81.67
2023-03-31T11:35:23.442Z,81.98
2023-03-31T11:36:23.437Z,80.96
2023-03-31T11:37:23.399Z,80.96
2023-03-31T11:38:24.001Z,80.11
2023-03-31T11:39:23.404Z,80.00
2023-03-31T11:40:23.379Z,80.31
2023-03-31T11:41:23.349Z,81.53
2023-03-31T11:42:23.345Z,78.95
2023-03-31T11:43:23.344Z,78.55
2023-03-31T11:44:23.327Z,78.95
2023-03-31T11:45:23.306Z,76.95
2023-03-31T11:46:23.330Z,78.38
2023-03-31T11:47:23.654Z,78.08
2023-03-31T11:48:23.257Z,78.58
2023-03-31T11:49:23.257Z,79.09
2023-03-31T11:50:23.237Z,77.67
2023-03-31T11:51:23.230Z,78.38
2023-03-31T11:52:23.222Z,78.28
2023-03-31T11:53:23.211Z,78.89
2023-03-31T11:54:23.241Z,76.55
2023-03-31T11:55:23.191Z,78.28
2023-03-31T11:56:23.162Z,79.29
2023-03-31T11:57:23.365Z,77.16
2023-03-31T11:58:23.141Z,78.17
2023-03-31T11:59:23.155Z,77.56
2023-03-31T12:00:23.116Z,77.16
2023-03-31T12:01:23.102Z,76.34
2023-03-31T12:02:23.446Z,77.73
2023-03-31T12:03:23.187Z,76.31
2023-03-31T12:04:23.066Z,74.28
2023-03-31T12:05:23.081Z,75.09
2023-03-31T12:06:23.114Z,74.79
2023-03-31T12:07:23.358Z,76.41
2023-03-31T12:08:23.044Z,76.21
2023-03-31T12:09:23.019Z,73.57
2023-03-31T12:10:22.987Z,74.99
2023-03-31T12:11:22.977Z,76.41
2023-03-31T12:12:23.146Z,76.82
2023-03-31T12:13:22.969Z,76.61
2023-03-31T12:14:22.934Z,75.80
2023-03-31T12:15:22.940Z,76.78
2023-03-31T12:16:22.955Z,76.48
2023-03-31T12:17:23.176Z,76.31
2023-03-31T12:18:22.918Z,76.68
2023-03-31T12:19:22.875Z,75.76
2023-03-31T12:20:22.867Z,74.24
2023-03-31T12:21:22.858Z,73.94
2023-03-31T12:22:23.006Z,75.97
2023-03-31T12:23:22.833Z,74.75
2023-03-31T12:24:22.813Z,75.36
2023-03-31T12:25:22.830Z,74.75
2023-03-31T12:26:22.825Z,76.58
2023-03-31T12:27:23.144Z,76.44
2023-03-31T12:28:22.801Z,77.12
2023-03-31T12:29:22.757Z,75.35
2023-03-31T12:30:22.744Z,73.53
2023-03-31T12:31:22.762Z,74.54
2023-03-31T12:32:22.812Z,72.92
2023-03-31T12:33:22.715Z,71.60
2023-03-31T12:34:22.696Z,71.60
2023-03-31T12:35:22.717Z,71.40
2023-03-31T12:36:22.743Z,71.57
2023-03-31T12:37:22.686Z,74.98
2023-03-31T12:38:22.641Z,72.45
2023-03-31T12:39:22.629Z,72.45
2023-03-31T12:40:22.620Z,73.86
2023-03-31T12:41:22.611Z,73.16
2023-03-31T12:42:25.045Z,71.67
2023-03-31T12:43:22.633Z,71.06
2023-03-31T12:44:22.573Z,74.14
2023-03-31T12:45:22.572Z,73.93
2023-03-31T12:46:22.620Z,73.46
2023-03-31T12:47:22.971Z,73.97
2023-03-31T12:48:22.526Z,73.09
2023-03-31T12:49:22.523Z,74.31
2023-03-31T12:50:22.509Z,75.05
2023-03-31T12:51:22.498Z,74.04
2023-03-31T12:52:22.506Z,74.58